sensor_id;sensor_type;location;lat;lon;timestamp;P1;durP1;ratioP1;P2;durP2;ratioP2
22363;SDS011;11349;53.412;-1.328;2023-07-29T00:01:39;3.88;;;1.20;;
22363;SDS011;11349;53.412;-1.328;2023-07-29T00:04:06;5.20;;;1.10;;
22363;SDS011;11349;53.412;-1.328;2023-07-29T00:06:34;3.25;;;1.33;;
22363;SDS011;11349;53.412;-1.328;2023-07-29T00:08:59;2.83;;;1.27;;
22363;SDS011;11349;53.412;-1.328;2023-07-29T00:11:25;3.22;;;1.20;;
22363;SDS011;11349;53.412;-1.328;2023-07-29T00:13:51;1.92;;;1.00;;
22363;SDS011;11349;53.412;-1.328;2023-07-29T00:16:17;5.95;;;1.15;;
22363;SDS011;11349;53.412;-1.328;2023-07-29T00:18:47;3.10;;;0.88;;
22363;SDS011;11349;53.412;-1.328;2023-07-29T00:21:13;3.30;;;1.38;;
22363;SDS011;11349;53.412;-1.328;2023-07-29T00:23:39;2.08;;;0.98;;
22363;SDS011;11349;53.412;-1.328;2023-07-29T00:26:07;2.20;;;1.10;;
22363;SDS011;11349;53.412;-1.328;2023-07-29T00:28:33;3.83;;;0.93;;
22363;SDS011;11349;53.412;-1.328;2023-07-29T00:30:59;3.22;;;1.25;;
22363;SDS011;11349;53.412;-1.328;2023-07-29T00:33:24;3.33;;;1.08;;
22363;SDS011;11349;53.412;-1.328;2023-07-29T00:35:50;2.45;;;0.82;;
22363;SDS011;11349;53.412;-1.328;2023-07-29T00:38:16;2.55;;;1.02;;
22363;SDS011;11349;53.412;-1.328;2023-07-29T00:40:42;2.55;;;1.00;;
22363;SDS011;11349;53.412;-1.328;2023-07-29T00:43:07;6.95;;;1.27;;
22363;SDS011;11349;53.412;-1.328;2023-07-29T00:45:33;2.63;;;1.02;;
22363;SDS011;11349;53.412;-1.328;2023-07-29T00:48:00;6.45;;;1.50;;
22363;SDS011;11349;53.412;-1.328;2023-07-29T00:50:26;4.85;;;1.25;;
22363;SDS011;11349;53.412;-1.328;2023-07-29T00:52:54;3.55;;;0.90;;
22363;SDS011;11349;53.412;-1.328;2023-07-29T00:55:20;3.00;;;1.10;;
22363;SDS011;11349;53.412;-1.328;2023-07-29T00:57:46;4.55;;;1.08;;
22363;SDS011;11349;53.412;-1.328;2023-07-29T01:00:14;3.75;;;1.00;;
22363;SDS011;11349;53.412;-1.328;2023-07-29T01:02:42;4.93;;;1.33;;
22363;SDS011;11349;53.412;-1.328;2023-07-29T01:05:08;2.78;;;1.13;;
22363;SDS011;11349;53.412;-1.328;2023-07-29T01:12:54;4.70;;;1.48;;
22363;SDS011;11349;53.412;-1.328;2023-07-29T01:16:01;3.55;;;1.10;;
22363;SDS011;11349;53.412;-1.328;2023-07-29T01:18:22;3.47;;;1.30;;
22363;SDS011;11349;53.412;-1.328;2023-07-29T01:21:03;2.67;;;1.35;;
22363;SDS011;11349;53.412;-1.328;2023-07-29T01:23:30;3.55;;;1.00;;
22363;SDS011;11349;53.412;-1.328;2023-07-29T01:25:57;3.75;;;1.20;;
22363;SDS011;11349;53.412;-1.328;2023-07-29T01:28:23;3.13;;;1.02;;
22363;SDS011;11349;53.412;-1.328;2023-07-29T01:30:51;2.70;;;1.13;;
22363;SDS011;11349;53.412;-1.328;2023-07-29T01:33:26;3.42;;;1.15;;
22363;SDS011;11349;53.412;-1.328;2023-07-29T01:35:59;4.40;;;1.20;;
22363;SDS011;11349;53.412;-1.328;2023-07-29T01:38:29;2.72;;;1.23;;
22363;SDS011;11349;53.412;-1.328;2023-07-29T01:41:03;2.90;;;1.33;;
22363;SDS011;11349;53.412;-1.328;2023-07-29T01:43:31;2.50;;;1.10;;
22363;SDS011;11349;53.412;-1.328;2023-07-29T01:45:58;4.72;;;1.20;;
22363;SDS011;11349;53.412;-1.328;2023-07-29T01:48:25;6.07;;;1.33;;
22363;SDS011;11349;53.412;-1.328;2023-07-29T01:50:52;6.53;;;1.50;;
22363;SDS011;11349;53.412;-1.328;2023-07-29T01:53:18;3.28;;;1.27;;
22363;SDS011;11349;53.412;-1.328;2023-07-29T01:55:44;2.15;;;1.00;;
22363;SDS011;11349;53.412;-1.328;2023-07-29T01:58:10;6.40;;;1.30;;
22363;SDS011;11349;53.412;-1.328;2023-07-29T02:00:36;3.47;;;1.10;;
22363;SDS011;11349;53.412;-1.328;2023-07-29T02:03:02;3.30;;;1.00;;
22363;SDS011;11349;53.412;-1.328;2023-07-29T02:05:27;6.60;;;1.75;;
22363;SDS011;11349;53.412;-1.328;2023-07-29T02:07:53;3.50;;;1.33;;
22363;SDS011;11349;53.412;-1.328;2023-07-29T02:10:19;3.25;;;1.30;;
22363;SDS011;11349;53.412;-1.328;2023-07-29T02:12:45;4.28;;;1.48;;
22363;SDS011;11349;53.412;-1.328;2023-07-29T02:15:10;3.58;;;1.27;;
22363;SDS011;11349;53.412;-1.328;2023-07-29T02:17:36;4.30;;;1.40;;
22363;SDS011;11349;53.412;-1.328;2023-07-29T02:20:03;4.22;;;1.42;;
22363;SDS011;11349;53.412;-1.328;2023-07-29T02:22:29;4.18;;;1.40;;
22363;SDS011;11349;53.412;-1.328;2023-07-29T02:24:55;4.88;;;1.23;;
22363;SDS011;11349;53.412;-1.328;2023-07-29T02:27:20;4.38;;;1.20;;
22363;SDS011;11349;53.412;-1.328;2023-07-29T02:29:46;9.63;;;1.75;;
22363;SDS011;11349;53.412;-1.328;2023-07-29T02:32:12;3.13;;;1.17;;
22363;SDS011;11349;53.412;-1.328;2023-07-29T02:34:38;3.38;;;1.13;;
22363;SDS011;11349;53.412;-1.328;2023-07-29T02:37:03;5.07;;;1.08;;
22363;SDS011;11349;53.412;-1.328;2023-07-29T02:39:30;2.53;;;1.08;;
22363;SDS011;11349;53.412;-1.328;2023-07-29T02:41:56;2.17;;;1.27;;
22363;SDS011;11349;53.412;-1.328;2023-07-29T02:44:23;4.07;;;1.40;;
22363;SDS011;11349;53.412;-1.328;2023-07-29T02:46:49;4.40;;;1.50;;
22363;SDS011;11349;53.412;-1.328;2023-07-29T02:49:17;4.22;;;1.23;;
22363;SDS011;11349;53.412;-1.328;2023-07-29T02:51:42;3.28;;;1.13;;
22363;SDS011;11349;53.412;-1.328;2023-07-29T02:54:08;4.90;;;1.45;;
22363;SDS011;11349;53.412;-1.328;2023-07-29T02:56:34;5.55;;;1.55;;
22363;SDS011;11349;53.412;-1.328;2023-07-29T02:58:59;3.35;;;1.45;;
22363;SDS011;11349;53.412;-1.328;2023-07-29T03:01:28;4.47;;;1.50;;
22363;SDS011;11349;53.412;-1.328;2023-07-29T03:03:54;3.33;;;1.25;;
22363;SDS011;11349;53.412;-1.328;2023-07-29T03:06:19;7.30;;;2.13;;
22363;SDS011;11349;53.412;-1.328;2023-07-29T03:08:45;3.47;;;1.30;;
22363;SDS011;11349;53.412;-1.328;2023-07-29T03:11:12;4.05;;;1.27;;
22363;SDS011;11349;53.412;-1.328;2023-07-29T03:13:39;4.07;;;1.23;;
22363;SDS011;11349;53.412;-1.328;2023-07-29T03:16:06;3.08;;;1.45;;
22363;SDS011;11349;53.412;-1.328;2023-07-29T03:18:33;2.30;;;1.23;;
22363;SDS011;11349;53.412;-1.328;2023-07-29T03:20:59;3.50;;;1.30;;
22363;SDS011;11349;53.412;-1.328;2023-07-29T03:23:25;3.35;;;1.20;;
22363;SDS011;11349;53.412;-1.328;2023-07-29T03:25:51;4.18;;;1.30;;
22363;SDS011;11349;53.412;-1.328;2023-07-29T03:28:21;4.07;;;1.42;;
22363;SDS011;11349;53.412;-1.328;2023-07-29T03:30:48;6.03;;;1.67;;
22363;SDS011;11349;53.412;-1.328;2023-07-29T03:33:13;4.20;;;1.50;;
22363;SDS011;11349;53.412;-1.328;2023-07-29T03:35:39;5.90;;;1.73;;
22363;SDS011;11349;53.412;-1.328;2023-07-29T03:38:05;6.10;;;1.63;;
22363;SDS011;11349;53.412;-1.328;2023-07-29T03:40:30;5.28;;;1.30;;
22363;SDS011;11349;53.412;-1.328;2023-07-29T03:42:56;4.03;;;1.35;;
22363;SDS011;11349;53.412;-1.328;2023-07-29T03:45:22;6.70;;;1.40;;
22363;SDS011;11349;53.412;-1.328;2023-07-29T03:47:47;4.82;;;1.80;;
22363;SDS011;11349;53.412;-1.328;2023-07-29T03:50:13;4.45;;;1.90;;
22363;SDS011;11349;53.412;-1.328;2023-07-29T03:52:39;4.18;;;1.33;;
22363;SDS011;11349;53.412;-1.328;2023-07-29T03:55:05;5.78;;;1.42;;
22363;SDS011;11349;53.412;-1.328;2023-07-29T03:57:31;4.38;;;1.10;;
22363;SDS011;11349;53.412;-1.328;2023-07-29T03:59:56;7.05;;;1.55;;
22363;SDS011;11349;53.412;-1.328;2023-07-29T04:02:22;3.92;;;1.35;;
22363;SDS011;11349;53.412;-1.328;2023-07-29T04:04:48;4.40;;;1.20;;
22363;SDS011;11349;53.412;-1.328;2023-07-29T04:07:13;3.05;;;1.15;;
22363;SDS011;11349;53.412;-1.328;2023-07-29T04:09:39;4.22;;;1.10;;
22363;SDS011;11349;53.412;-1.328;2023-07-29T04:12:05;4.30;;;1.27;;
22363;SDS011;11349;53.412;-1.328;2023-07-29T04:14:31;6.70;;;1.70;;
22363;SDS011;11349;53.412;-1.328;2023-07-29T04:16:57;4.47;;;1.60;;
22363;SDS011;11349;53.412;-1.328;2023-07-29T04:19:23;4.35;;;1.27;;
22363;SDS011;11349;53.412;-1.328;2023-07-29T04:21:48;6.30;;;1.35;;
22363;SDS011;11349;53.412;-1.328;2023-07-29T04:24:15;3.80;;;1.40;;
22363;SDS011;11349;53.412;-1.328;2023-07-29T04:26:41;7.88;;;1.58;;
22363;SDS011;11349;53.412;-1.328;2023-07-29T04:29:07;3.95;;;1.38;;
22363;SDS011;11349;53.412;-1.328;2023-07-29T04:31:32;8.00;;;1.35;;
22363;SDS011;11349;53.412;-1.328;2023-07-29T04:33:58;5.30;;;1.77;;
22363;SDS011;11349;53.412;-1.328;2023-07-29T04:36:24;5.53;;;1.30;;
22363;SDS011;11349;53.412;-1.328;2023-07-29T04:38:49;5.65;;;1.40;;
22363;SDS011;11349;53.412;-1.328;2023-07-29T04:41:15;4.60;;;2.03;;
22363;SDS011;11349;53.412;-1.328;2023-07-29T04:43:41;6.88;;;1.60;;
22363;SDS011;11349;53.412;-1.328;2023-07-29T04:46:07;4.82;;;1.58;;
22363;SDS011;11349;53.412;-1.328;2023-07-29T04:48:35;5.13;;;1.73;;
22363;SDS011;11349;53.412;-1.328;2023-07-29T04:51:01;4.95;;;1.95;;
22363;SDS011;11349;53.412;-1.328;2023-07-29T04:53:27;5.30;;;1.60;;
22363;SDS011;11349;53.412;-1.328;2023-07-29T04:55:52;4.63;;;1.90;;
22363;SDS011;11349;53.412;-1.328;2023-07-29T04:58:18;7.40;;;1.70;;
22363;SDS011;11349;53.412;-1.328;2023-07-29T05:00:46;5.07;;;1.60;;
22363;SDS011;11349;53.412;-1.328;2023-07-29T05:03:12;7.32;;;1.83;;
22363;SDS011;11349;53.412;-1.328;2023-07-29T05:05:37;8.07;;;2.17;;
22363;SDS011;11349;53.412;-1.328;2023-07-29T05:08:03;6.45;;;1.90;;
22363;SDS011;11349;53.412;-1.328;2023-07-29T05:10:29;8.32;;;1.88;;
22363;SDS011;11349;53.412;-1.328;2023-07-29T05:12:55;5.65;;;1.75;;
22363;SDS011;11349;53.412;-1.328;2023-07-29T05:15:21;7.97;;;1.92;;
22363;SDS011;11349;53.412;-1.328;2023-07-29T05:17:47;7.18;;;1.55;;
22363;SDS011;11349;53.412;-1.328;2023-07-29T05:20:13;8.82;;;2.00;;
22363;SDS011;11349;53.412;-1.328;2023-07-29T05:22:39;6.43;;;1.40;;
22363;SDS011;11349;53.412;-1.328;2023-07-29T05:25:05;7.15;;;2.05;;
22363;SDS011;11349;53.412;-1.328;2023-07-29T05:27:31;9.85;;;1.80;;
22363;SDS011;11349;53.412;-1.328;2023-07-29T05:29:56;8.00;;;2.63;;
22363;SDS011;11349;53.412;-1.328;2023-07-29T05:32:22;10.00;;;2.20;;
22363;SDS011;11349;53.412;-1.328;2023-07-29T05:34:48;5.43;;;1.65;;
22363;SDS011;11349;53.412;-1.328;2023-07-29T05:37:13;5.53;;;1.65;;
22363;SDS011;11349;53.412;-1.328;2023-07-29T05:39:39;8.00;;;1.80;;
22363;SDS011;11349;53.412;-1.328;2023-07-29T05:42:05;6.18;;;2.20;;
22363;SDS011;11349;53.412;-1.328;2023-07-29T05:44:31;4.30;;;1.98;;
22363;SDS011;11349;53.412;-1.328;2023-07-29T05:46:57;6.63;;;1.92;;
22363;SDS011;11349;53.412;-1.328;2023-07-29T05:49:23;8.70;;;2.10;;
22363;SDS011;11349;53.412;-1.328;2023-07-29T05:51:48;4.65;;;2.08;;
22363;SDS011;11349;53.412;-1.328;2023-07-29T05:54:15;8.30;;;2.25;;
22363;SDS011;11349;53.412;-1.328;2023-07-29T05:56:42;9.45;;;2.13;;
22363;SDS011;11349;53.412;-1.328;2023-07-29T05:59:08;7.47;;;2.00;;
22363;SDS011;11349;53.412;-1.328;2023-07-29T06:01:33;7.55;;;1.90;;
22363;SDS011;11349;53.412;-1.328;2023-07-29T06:04:00;7.97;;;2.55;;
22363;SDS011;11349;53.412;-1.328;2023-07-29T06:06:26;6.10;;;2.00;;
22363;SDS011;11349;53.412;-1.328;2023-07-29T06:08:52;8.23;;;2.50;;
22363;SDS011;11349;53.412;-1.328;2023-07-29T06:11:17;5.40;;;1.65;;
22363;SDS011;11349;53.412;-1.328;2023-07-29T06:13:43;9.30;;;2.15;;
22363;SDS011;11349;53.412;-1.328;2023-07-29T06:16:09;6.70;;;2.22;;
22363;SDS011;11349;53.412;-1.328;2023-07-29T06:18:35;6.43;;;1.92;;
22363;SDS011;11349;53.412;-1.328;2023-07-29T06:21:00;5.70;;;1.95;;
22363;SDS011;11349;53.412;-1.328;2023-07-29T06:23:26;7.15;;;2.35;;
22363;SDS011;11349;53.412;-1.328;2023-07-29T06:25:52;9.25;;;1.90;;
22363;SDS011;11349;53.412;-1.328;2023-07-29T06:28:18;9.90;;;1.98;;
22363;SDS011;11349;53.412;-1.328;2023-07-29T06:30:43;7.43;;;2.28;;
22363;SDS011;11349;53.412;-1.328;2023-07-29T06:33:09;7.13;;;2.25;;
22363;SDS011;11349;53.412;-1.328;2023-07-29T06:35:35;7.28;;;1.90;;
22363;SDS011;11349;53.412;-1.328;2023-07-29T06:38:01;8.80;;;1.83;;
22363;SDS011;11349;53.412;-1.328;2023-07-29T06:40:27;7.32;;;1.85;;
22363;SDS011;11349;53.412;-1.328;2023-07-29T06:42:52;5.47;;;1.73;;
22363;SDS011;11349;53.412;-1.328;2023-07-29T06:45:18;5.53;;;2.22;;
22363;SDS011;11349;53.412;-1.328;2023-07-29T06:47:44;7.03;;;2.47;;
22363;SDS011;11349;53.412;-1.328;2023-07-29T06:50:10;4.70;;;1.60;;
22363;SDS011;11349;53.412;-1.328;2023-07-29T06:52:35;7.82;;;1.95;;
22363;SDS011;11349;53.412;-1.328;2023-07-29T06:55:03;6.20;;;1.85;;
22363;SDS011;11349;53.412;-1.328;2023-07-29T06:57:29;5.70;;;2.00;;
22363;SDS011;11349;53.412;-1.328;2023-07-29T06:59:55;4.75;;;1.65;;
22363;SDS011;11349;53.412;-1.328;2023-07-29T07:02:20;8.10;;;2.30;;
22363;SDS011;11349;53.412;-1.328;2023-07-29T07:04:46;7.45;;;1.80;;
22363;SDS011;11349;53.412;-1.328;2023-07-29T07:07:12;3.70;;;1.48;;
22363;SDS011;11349;53.412;-1.328;2023-07-29T07:09:37;6.18;;;1.92;;
22363;SDS011;11349;53.412;-1.328;2023-07-29T07:12:03;10.07;;;1.90;;
22363;SDS011;11349;53.412;-1.328;2023-07-29T07:14:29;6.32;;;1.63;;
22363;SDS011;11349;53.412;-1.328;2023-07-29T07:16:55;4.38;;;1.70;;
22363;SDS011;11349;53.412;-1.328;2023-07-29T07:19:20;5.85;;;1.73;;
22363;SDS011;11349;53.412;-1.328;2023-07-29T07:21:46;6.82;;;1.73;;
22363;SDS011;11349;53.412;-1.328;2023-07-29T07:24:12;4.32;;;1.48;;
22363;SDS011;11349;53.412;-1.328;2023-07-29T07:26:37;6.68;;;1.77;;
22363;SDS011;11349;53.412;-1.328;2023-07-29T07:29:03;8.93;;;2.00;;
22363;SDS011;11349;53.412;-1.328;2023-07-29T07:31:32;6.05;;;1.77;;
22363;SDS011;11349;53.412;-1.328;2023-07-29T07:33:59;5.35;;;1.73;;
22363;SDS011;11349;53.412;-1.328;2023-07-29T07:36:25;5.13;;;1.40;;
22363;SDS011;11349;53.412;-1.328;2023-07-29T07:38:51;6.57;;;1.77;;
22363;SDS011;11349;53.412;-1.328;2023-07-29T07:41:17;6.45;;;1.70;;
22363;SDS011;11349;53.412;-1.328;2023-07-29T07:43:42;6.78;;;2.22;;
22363;SDS011;11349;53.412;-1.328;2023-07-29T07:46:11;5.13;;;1.70;;
22363;SDS011;11349;53.412;-1.328;2023-07-29T07:48:38;6.20;;;1.60;;
22363;SDS011;11349;53.412;-1.328;2023-07-29T07:51:10;6.53;;;2.05;;
22363;SDS011;11349;53.412;-1.328;2023-07-29T07:53:37;5.50;;;1.42;;
22363;SDS011;11349;53.412;-1.328;2023-07-29T07:56:03;6.88;;;2.38;;
22363;SDS011;11349;53.412;-1.328;2023-07-29T07:58:28;6.95;;;1.88;;
22363;SDS011;11349;53.412;-1.328;2023-07-29T08:01:00;5.30;;;1.70;;
22363;SDS011;11349;53.412;-1.328;2023-07-29T08:03:30;5.53;;;2.22;;
22363;SDS011;11349;53.412;-1.328;2023-07-29T08:05:56;7.18;;;1.73;;
22363;SDS011;11349;53.412;-1.328;2023-07-29T08:08:21;5.68;;;1.73;;
22363;SDS011;11349;53.412;-1.328;2023-07-29T08:10:51;6.13;;;1.48;;
22363;SDS011;11349;53.412;-1.328;2023-07-29T08:13:18;5.25;;;1.70;;
22363;SDS011;11349;53.412;-1.328;2023-07-29T08:15:47;4.38;;;1.70;;
22363;SDS011;11349;53.412;-1.328;2023-07-29T08:18:14;5.25;;;1.60;;
22363;SDS011;11349;53.412;-1.328;2023-07-29T08:20:41;7.75;;;1.90;;
22363;SDS011;11349;53.412;-1.328;2023-07-29T08:23:07;5.38;;;1.63;;
22363;SDS011;11349;53.412;-1.328;2023-07-29T08:25:32;6.20;;;1.80;;
22363;SDS011;11349;53.412;-1.328;2023-07-29T08:27:59;6.40;;;1.85;;
22363;SDS011;11349;53.412;-1.328;2023-07-29T08:30:24;9.57;;;1.65;;
22363;SDS011;11349;53.412;-1.328;2023-07-29T08:32:50;7.88;;;2.03;;
22363;SDS011;11349;53.412;-1.328;2023-07-29T08:35:16;5.53;;;2.20;;
22363;SDS011;11349;53.412;-1.328;2023-07-29T08:37:41;9.68;;;2.30;;
22363;SDS011;11349;53.412;-1.328;2023-07-29T08:40:07;4.97;;;1.98;;
22363;SDS011;11349;53.412;-1.328;2023-07-29T08:42:33;4.22;;;1.33;;
22363;SDS011;11349;53.412;-1.328;2023-07-29T08:45:06;5.38;;;1.50;;
22363;SDS011;11349;53.412;-1.328;2023-07-29T08:47:36;8.07;;;2.17;;
22363;SDS011;11349;53.412;-1.328;2023-07-29T08:50:02;3.72;;;1.48;;
22363;SDS011;11349;53.412;-1.328;2023-07-29T08:52:29;5.15;;;1.52;;
22363;SDS011;11349;53.412;-1.328;2023-07-29T08:54:57;6.50;;;1.30;;
22363;SDS011;11349;53.412;-1.328;2023-07-29T08:57:23;3.45;;;1.10;;
22363;SDS011;11349;53.412;-1.328;2023-07-29T08:59:50;3.22;;;1.00;;
22363;SDS011;11349;53.412;-1.328;2023-07-29T09:02:18;3.65;;;0.98;;
22363;SDS011;11349;53.412;-1.328;2023-07-29T09:04:44;5.40;;;1.27;;
22363;SDS011;11349;53.412;-1.328;2023-07-29T09:07:09;3.90;;;1.27;;
22363;SDS011;11349;53.412;-1.328;2023-07-29T09:09:35;4.80;;;1.33;;
22363;SDS011;11349;53.412;-1.328;2023-07-29T09:12:01;3.15;;;1.13;;
22363;SDS011;11349;53.412;-1.328;2023-07-29T09:14:27;5.68;;;1.65;;
22363;SDS011;11349;53.412;-1.328;2023-07-29T09:16:53;3.03;;;1.23;;
22363;SDS011;11349;53.412;-1.328;2023-07-29T09:19:19;3.80;;;1.23;;
22363;SDS011;11349;53.412;-1.328;2023-07-29T09:21:46;4.57;;;1.17;;
22363;SDS011;11349;53.412;-1.328;2023-07-29T09:24:12;6.38;;;1.40;;
22363;SDS011;11349;53.412;-1.328;2023-07-29T09:26:48;4.60;;;1.38;;
22363;SDS011;11349;53.412;-1.328;2023-07-29T09:29:15;4.40;;;1.63;;
22363;SDS011;11349;53.412;-1.328;2023-07-29T09:31:46;4.47;;;1.10;;
22363;SDS011;11349;53.412;-1.328;2023-07-29T09:34:12;4.65;;;1.10;;
22363;SDS011;11349;53.412;-1.328;2023-07-29T09:36:42;5.80;;;1.25;;
22363;SDS011;11349;53.412;-1.328;2023-07-29T09:39:11;4.90;;;1.17;;
22363;SDS011;11349;53.412;-1.328;2023-07-29T09:41:38;4.10;;;0.98;;
22363;SDS011;11349;53.412;-1.328;2023-07-29T09:44:04;5.30;;;1.27;;
22363;SDS011;11349;53.412;-1.328;2023-07-29T09:46:37;5.70;;;1.27;;
22363;SDS011;11349;53.412;-1.328;2023-07-29T09:49:06;5.68;;;1.33;;
22363;SDS011;11349;53.412;-1.328;2023-07-29T09:51:41;6.68;;;1.48;;
22363;SDS011;11349;53.412;-1.328;2023-07-29T09:54:07;7.07;;;1.48;;
22363;SDS011;11349;53.412;-1.328;2023-07-29T09:56:34;5.78;;;1.20;;
22363;SDS011;11349;53.412;-1.328;2023-07-29T09:59:06;3.55;;;1.00;;
22363;SDS011;11349;53.412;-1.328;2023-07-29T10:01:32;7.20;;;1.42;;
22363;SDS011;11349;53.412;-1.328;2023-07-29T10:04:01;5.32;;;1.27;;
22363;SDS011;11349;53.412;-1.328;2023-07-29T10:06:28;3.45;;;0.95;;
22363;SDS011;11349;53.412;-1.328;2023-07-29T10:08:54;6.57;;;1.15;;
22363;SDS011;11349;53.412;-1.328;2023-07-29T10:11:21;5.70;;;1.50;;
22363;SDS011;11349;53.412;-1.328;2023-07-29T10:13:47;4.68;;;1.20;;
22363;SDS011;11349;53.412;-1.328;2023-07-29T10:16:16;3.28;;;1.08;;
22363;SDS011;11349;53.412;-1.328;2023-07-29T10:18:43;5.28;;;1.52;;
22363;SDS011;11349;53.412;-1.328;2023-07-29T10:21:10;5.75;;;1.10;;
22363;SDS011;11349;53.412;-1.328;2023-07-29T10:23:42;3.72;;;1.25;;
22363;SDS011;11349;53.412;-1.328;2023-07-29T10:26:10;4.45;;;0.95;;
22363;SDS011;11349;53.412;-1.328;2023-07-29T10:28:39;4.38;;;1.20;;
22363;SDS011;11349;53.412;-1.328;2023-07-29T10:31:06;8.57;;;1.42;;
22363;SDS011;11349;53.412;-1.328;2023-07-29T10:33:33;5.10;;;1.08;;
22363;SDS011;11349;53.412;-1.328;2023-07-29T10:35:59;10.65;;;1.92;;
22363;SDS011;11349;53.412;-1.328;2023-07-29T10:38:26;6.07;;;1.27;;
22363;SDS011;11349;53.412;-1.328;2023-07-29T10:40:54;4.15;;;1.55;;
22363;SDS011;11349;53.412;-1.328;2023-07-29T10:43:37;3.50;;;1.02;;
22363;SDS011;11349;53.412;-1.328;2023-07-29T10:46:25;3.80;;;1.10;;
22363;SDS011;11349;53.412;-1.328;2023-07-29T10:51:21;4.88;;;1.10;;
22363;SDS011;11349;53.412;-1.328;2023-07-29T10:53:47;6.15;;;1.45;;
22363;SDS011;11349;53.412;-1.328;2023-07-29T10:56:13;3.80;;;1.50;;
22363;SDS011;11349;53.412;-1.328;2023-07-29T10:59:02;5.78;;;1.15;;
22363;SDS011;11349;53.412;-1.328;2023-07-29T11:01:52;6.82;;;1.10;;
22363;SDS011;11349;53.412;-1.328;2023-07-29T11:09:42;2.35;;;0.70;;
22363;SDS011;11349;53.412;-1.328;2023-07-29T11:14:59;3.58;;;0.73;;
22363;SDS011;11349;53.412;-1.328;2023-07-29T11:17:30;2.75;;;1.23;;
22363;SDS011;11349;53.412;-1.328;2023-07-29T11:20:02;3.08;;;0.80;;
22363;SDS011;11349;53.412;-1.328;2023-07-29T11:22:29;2.70;;;0.70;;
22363;SDS011;11349;53.412;-1.328;2023-07-29T11:24:55;2.92;;;0.73;;
22363;SDS011;11349;53.412;-1.328;2023-07-29T11:27:21;4.95;;;1.00;;
22363;SDS011;11349;53.412;-1.328;2023-07-29T11:29:47;4.10;;;0.95;;
22363;SDS011;11349;53.412;-1.328;2023-07-29T11:32:13;4.22;;;1.00;;
22363;SDS011;11349;53.412;-1.328;2023-07-29T11:34:40;4.47;;;1.20;;
22363;SDS011;11349;53.412;-1.328;2023-07-29T11:37:08;3.25;;;0.95;;
22363;SDS011;11349;53.412;-1.328;2023-07-29T11:39:42;5.20;;;1.35;;
22363;SDS011;11349;53.412;-1.328;2023-07-29T11:42:15;5.97;;;1.63;;
22363;SDS011;11349;53.412;-1.328;2023-07-29T11:44:41;5.82;;;1.60;;
22363;SDS011;11349;53.412;-1.328;2023-07-29T11:47:07;5.18;;;0.88;;
22363;SDS011;11349;53.412;-1.328;2023-07-29T11:49:34;5.63;;;1.38;;
22363;SDS011;11349;53.412;-1.328;2023-07-29T11:52:01;6.20;;;1.88;;
22363;SDS011;11349;53.412;-1.328;2023-07-29T11:54:28;8.00;;;1.80;;
22363;SDS011;11349;53.412;-1.328;2023-07-29T11:56:54;7.00;;;2.15;;
22363;SDS011;11349;53.412;-1.328;2023-07-29T11:59:20;7.72;;;1.55;;
22363;SDS011;11349;53.412;-1.328;2023-07-29T12:01:46;6.13;;;1.38;;
22363;SDS011;11349;53.412;-1.328;2023-07-29T12:04:13;5.30;;;1.40;;
22363;SDS011;11349;53.412;-1.328;2023-07-29T12:06:39;5.20;;;1.10;;
22363;SDS011;11349;53.412;-1.328;2023-07-29T12:09:05;6.55;;;1.77;;
22363;SDS011;11349;53.412;-1.328;2023-07-29T12:11:32;8.20;;;1.48;;
22363;SDS011;11349;53.412;-1.328;2023-07-29T12:13:59;5.63;;;1.33;;
22363;SDS011;11349;53.412;-1.328;2023-07-29T12:16:25;5.85;;;1.63;;
22363;SDS011;11349;53.412;-1.328;2023-07-29T12:18:51;6.18;;;1.48;;
22363;SDS011;11349;53.412;-1.328;2023-07-29T12:21:17;6.88;;;1.20;;
22363;SDS011;11349;53.412;-1.328;2023-07-29T12:23:44;5.85;;;1.55;;
22363;SDS011;11349;53.412;-1.328;2023-07-29T12:26:10;8.23;;;1.50;;
22363;SDS011;11349;53.412;-1.328;2023-07-29T12:28:35;6.07;;;1.40;;
22363;SDS011;11349;53.412;-1.328;2023-07-29T12:31:01;5.13;;;1.23;;
22363;SDS011;11349;53.412;-1.328;2023-07-29T12:33:32;7.85;;;1.10;;
22363;SDS011;11349;53.412;-1.328;2023-07-29T12:36:02;6.05;;;1.45;;
22363;SDS011;11349;53.412;-1.328;2023-07-29T12:38:29;6.72;;;1.40;;
22363;SDS011;11349;53.412;-1.328;2023-07-29T12:40:55;4.70;;;1.10;;
22363;SDS011;11349;53.412;-1.328;2023-07-29T12:43:21;3.60;;;0.88;;
22363;SDS011;11349;53.412;-1.328;2023-07-29T12:45:50;5.45;;;1.17;;
22363;SDS011;11349;53.412;-1.328;2023-07-29T12:48:17;5.25;;;1.35;;
22363;SDS011;11349;53.412;-1.328;2023-07-29T12:50:43;8.73;;;1.40;;
22363;SDS011;11349;53.412;-1.328;2023-07-29T12:53:09;4.10;;;1.35;;
22363;SDS011;11349;53.412;-1.328;2023-07-29T12:55:35;7.50;;;1.45;;
22363;SDS011;11349;53.412;-1.328;2023-07-29T12:58:01;4.07;;;1.25;;
22363;SDS011;11349;53.412;-1.328;2023-07-29T13:00:28;6.32;;;1.13;;
22363;SDS011;11349;53.412;-1.328;2023-07-29T13:02:54;7.72;;;1.52;;
22363;SDS011;11349;53.412;-1.328;2023-07-29T13:05:20;5.72;;;1.27;;
22363;SDS011;11349;53.412;-1.328;2023-07-29T13:07:46;5.75;;;1.88;;
22363;SDS011;11349;53.412;-1.328;2023-07-29T13:10:12;5.97;;;1.60;;
22363;SDS011;11349;53.412;-1.328;2023-07-29T13:12:38;6.07;;;1.48;;
22363;SDS011;11349;53.412;-1.328;2023-07-29T13:15:04;7.95;;;1.20;;
22363;SDS011;11349;53.412;-1.328;2023-07-29T13:17:30;3.78;;;1.10;;
22363;SDS011;11349;53.412;-1.328;2023-07-29T13:19:56;5.65;;;1.20;;
22363;SDS011;11349;53.412;-1.328;2023-07-29T13:22:22;4.90;;;1.20;;
22363;SDS011;11349;53.412;-1.328;2023-07-29T13:24:47;5.90;;;1.40;;
22363;SDS011;11349;53.412;-1.328;2023-07-29T13:27:13;3.88;;;0.90;;
22363;SDS011;11349;53.412;-1.328;2023-07-29T13:29:39;6.22;;;1.13;;
22363;SDS011;11349;53.412;-1.328;2023-07-29T13:32:08;4.65;;;1.10;;
22363;SDS011;11349;53.412;-1.328;2023-07-29T13:34:34;5.53;;;0.90;;
22363;SDS011;11349;53.412;-1.328;2023-07-29T13:37:00;2.65;;;1.00;;
22363;SDS011;11349;53.412;-1.328;2023-07-29T13:39:25;5.93;;;1.40;;
22363;SDS011;11349;53.412;-1.328;2023-07-29T13:41:52;7.35;;;1.23;;
22363;SDS011;11349;53.412;-1.328;2023-07-29T13:44:21;4.35;;;1.25;;
22363;SDS011;11349;53.412;-1.328;2023-07-29T13:46:46;5.78;;;1.10;;
22363;SDS011;11349;53.412;-1.328;2023-07-29T13:49:12;6.63;;;1.17;;
22363;SDS011;11349;53.412;-1.328;2023-07-29T13:51:38;5.15;;;1.20;;
22363;SDS011;11349;53.412;-1.328;2023-07-29T13:54:03;5.95;;;1.98;;
22363;SDS011;11349;53.412;-1.328;2023-07-29T13:56:29;2.97;;;1.17;;
22363;SDS011;11349;53.412;-1.328;2023-07-29T13:58:55;3.22;;;1.13;;
22363;SDS011;11349;53.412;-1.328;2023-07-29T14:01:20;6.45;;;1.25;;
22363;SDS011;11349;53.412;-1.328;2023-07-29T14:03:46;4.57;;;1.00;;
22363;SDS011;11349;53.412;-1.328;2023-07-29T14:06:12;4.70;;;1.10;;
22363;SDS011;11349;53.412;-1.328;2023-07-29T14:08:37;4.15;;;0.98;;
22363;SDS011;11349;53.412;-1.328;2023-07-29T14:11:06;6.53;;;1.05;;
22363;SDS011;11349;53.412;-1.328;2023-07-29T14:13:31;4.78;;;1.33;;
22363;SDS011;11349;53.412;-1.328;2023-07-29T14:15:57;3.47;;;1.00;;
22363;SDS011;11349;53.412;-1.328;2023-07-29T14:18:24;2.45;;;0.75;;
22363;SDS011;11349;53.412;-1.328;2023-07-29T14:20:50;3.22;;;0.80;;
22363;SDS011;11349;53.412;-1.328;2023-07-29T14:23:16;2.35;;;0.93;;
22363;SDS011;11349;53.412;-1.328;2023-07-29T14:25:42;4.00;;;1.27;;
22363;SDS011;11349;53.412;-1.328;2023-07-29T14:28:07;3.15;;;0.90;;
22363;SDS011;11349;53.412;-1.328;2023-07-29T14:30:33;5.60;;;1.45;;
22363;SDS011;11349;53.412;-1.328;2023-07-29T14:33:00;5.07;;;1.48;;
22363;SDS011;11349;53.412;-1.328;2023-07-29T14:35:26;5.35;;;0.90;;
22363;SDS011;11349;53.412;-1.328;2023-07-29T14:37:51;4.07;;;1.05;;
22363;SDS011;11349;53.412;-1.328;2023-07-29T14:40:17;4.43;;;1.13;;
22363;SDS011;11349;53.412;-1.328;2023-07-29T14:42:43;4.63;;;1.25;;
22363;SDS011;11349;53.412;-1.328;2023-07-29T14:45:09;4.10;;;0.90;;
22363;SDS011;11349;53.412;-1.328;2023-07-29T14:47:35;3.45;;;0.90;;